createdAt,value
2019-04-14T00:02:23.179Z,60.03
2019-04-14T00:04:55.070Z,58.77
2019-04-14T00:07:25.490Z,60.20
2019-04-14T00:09:54.882Z,63.30
2019-04-14T00:12:25.142Z,64.90
2019-04-14T00:14:55.471Z,60.33
2019-04-14T00:17:26.165Z,68.37
2019-04-14T00:19:56.665Z,63.00
2019-04-14T00:22:28.086Z,68.47
2019-04-14T00:24:57.517Z,63.53
2019-04-14T00:27:28.114Z,65.63
2019-04-14T00:29:58.895Z,60.17
2019-04-14T00:32:31.204Z,63.47
2019-04-14T00:35:02.412Z,62.07
2019-04-14T00:37:33.657Z,61.67
2019-04-14T00:40:15.013Z,59.53
2019-04-14T00:42:47.349Z,68.27
2019-04-14T00:45:32.240Z,65.03
2019-04-14T00:48:01.070Z,57.80
2019-04-14T00:50:25.443Z,66.97
2019-04-14T00:52:58.812Z,60.97
2019-04-14T00:55:29.260Z,58.37
2019-04-14T00:57:59.947Z,63.47
2019-04-14T01:00:29.731Z,59.10
2019-04-14T01:03:00.185Z,58.80
2019-04-14T01:05:32.884Z,60.87
2019-04-14T01:08:01.470Z,57.80
2019-04-14T01:10:32.101Z,58.23
2019-04-14T01:13:02.690Z,55.57
2019-04-14T01:15:44.801Z,57.33
2019-04-14T01:18:03.605Z,61.10
2019-04-14T01:20:33.957Z,65.03
2019-04-14T01:23:04.176Z,65.80
2019-04-14T01:25:34.572Z,64.80
2019-04-14T01:28:04.671Z,65.77
2019-04-14T01:30:35.117Z,56.87
2019-04-14T01:33:05.456Z,56.90
2019-04-14T01:35:35.734Z,61.23
2019-04-14T01:38:05.890Z,56.10
2019-04-14T01:40:35.947Z,63.33
2019-04-14T01:43:05.992Z,57.57
2019-04-14T01:45:35.916Z,69.53
2019-04-14T01:48:05.979Z,66.03
2019-04-14T01:50:37.054Z,67.77
2019-04-14T01:53:08.122Z,62.80
2019-04-14T01:55:42.096Z,62.87
2019-04-14T01:58:14.295Z,67.13
2019-04-14T02:00:55.364Z,64.27
2019-04-14T02:03:25.953Z,59.43
2019-04-14T02:05:56.115Z,69.70
2019-04-14T02:08:26.923Z,68.00
2019-04-14T02:10:56.602Z,60.27
2019-04-14T02:13:26.793Z,63.93
2019-04-14T02:15:57.337Z,59.83
2019-04-14T02:18:27.247Z,56.03
2019-04-14T02:20:57.807Z,55.23
2019-04-14T02:23:27.993Z,62.17
2019-04-14T02:25:57.950Z,64.70
2019-04-14T02:28:28.774Z,55.07
2019-04-14T02:31:12.101Z,61.63
2019-04-14T02:33:50.893Z,65.77
2019-04-14T02:39:13.910Z,61.20
2019-04-14T02:41:44.266Z,60.37
2019-04-14T02:44:05.008Z,59.63
2019-04-14T02:46:40.033Z,64.17
2019-04-14T02:49:04.728Z,62.77
2019-04-14T02:59:05.916Z,64.07
2019-04-14T03:01:48.329Z,62.67
2019-04-14T03:04:09.336Z,61.77
2019-04-14T03:11:38.063Z,65.53
2019-04-14T03:17:08.147Z,56.33
2019-04-14T03:19:48.210Z,66.10
2019-04-14T03:24:45.281Z,59.00
2019-04-14T03:27:44.883Z,67.60
2019-04-14T03:30:33.658Z,65.60
2019-04-14T03:40:18.593Z,58.27
2019-04-14T03:42:54.211Z,55.80
2019-04-14T03:45:29.988Z,54.87
2019-04-14T03:48:14.866Z,57.83
2019-04-14T03:50:21.245Z,58.13
2019-04-14T03:52:59.630Z,62.80
2019-04-14T03:55:16.330Z,65.77
2019-04-14T03:57:32.730Z,63.47
2019-04-14T04:00:03.199Z,61.27
2019-04-14T04:02:33.719Z,70.80
2019-04-14T04:05:04.202Z,62.33
2019-04-14T04:07:34.305Z,61.83
2019-04-14T04:10:07.225Z,61.73
2019-04-14T04:12:37.881Z,69.53
2019-04-14T04:15:08.382Z,70.97
2019-04-14T04:17:51.754Z,76.97
2019-04-14T04:20:32.828Z,77.73
2019-04-14T04:23:16.293Z,85.33
2019-04-14T04:25:48.584Z,98.37
2019-04-14T04:28:36.423Z,105.53
2019-04-14T04:31:13.449Z,103.43
2019-04-14T04:33:45.740Z,113.40
2019-04-14T04:36:23.059Z,110.50
2019-04-14T04:39:10.368Z,98.13
2019-04-14T04:41:40.695Z,102.43
2019-04-14T04:44:11.479Z,96.87
2019-04-14T04:46:41.599Z,97.13
2019-04-14T04:49:16.485Z,99.97
2019-04-14T04:51:42.205Z,97.43
2019-04-14T04:54:12.528Z,97.67
2019-04-14T04:56:42.705Z,88.83
2019-04-14T04:59:12.673Z,88.10
2019-04-14T05:01:42.939Z,86.73
2019-04-14T05:04:13.274Z,90.23
2019-04-14T05:06:50.598Z,73.90
2019-04-14T05:09:36.996Z,90.47
2019-04-14T05:12:19.698Z,82.60
2019-04-14T05:14:54.458Z,83.70
2019-04-14T05:17:25.692Z,81.80
2019-04-14T05:19:56.128Z,79.27
2019-04-14T05:22:26.677Z,73.90
2019-04-14T05:24:59.202Z,76.23
2019-04-14T05:27:29.828Z,67.80
2019-04-14T05:30:00.403Z,68.13
2019-04-14T05:32:30.521Z,71.97
2019-04-14T05:35:00.851Z,66.23
2019-04-14T05:37:31.112Z,65.27
2019-04-14T05:40:01.614Z,65.30
2019-04-14T05:42:32.372Z,69.87
2019-04-14T05:45:02.458Z,65.63
2019-04-14T05:47:33.155Z,72.00
2019-04-14T05:50:03.181Z,62.63
2019-04-14T05:52:33.878Z,69.37
2019-04-14T05:55:04.520Z,64.27
2019-04-14T05:57:35.088Z,66.83
2019-04-14T06:00:08.050Z,68.47
2019-04-14T06:02:37.788Z,66.17
2019-04-14T06:05:08.997Z,64.97
2019-04-14T06:07:38.310Z,58.60
2019-04-14T06:10:07.743Z,66.07
2019-04-14T06:12:37.215Z,60.77
2019-04-14T06:15:06.637Z,73.17
2019-04-14T06:17:36.138Z,58.60
2019-04-14T06:20:05.563Z,61.10
2019-04-14T06:22:35.020Z,64.30
2019-04-14T06:25:06.712Z,59.10
2019-04-14T06:27:36.117Z,67.03
2019-04-14T06:30:08.059Z,59.97
2019-04-14T06:32:45.098Z,61.00
2019-04-14T06:35:32.685Z,68.40
2019-04-14T06:38:05.854Z,67.50
2019-04-14T06:40:36.580Z,60.10
2019-04-14T06:43:05.983Z,68.57
2019-04-14T06:45:35.377Z,61.50
2019-04-14T06:48:04.823Z,66.00
2019-04-14T06:50:34.242Z,67.95
2019-04-14T06:53:03.695Z,58.07
2019-04-14T06:55:33.125Z,58.53
2019-04-14T06:58:02.532Z,60.83
2019-04-14T07:00:31.907Z,58.90
2019-04-14T07:03:01.259Z,56.87
2019-04-14T07:05:30.725Z,64.55
2019-04-14T07:08:00.048Z,60.83
2019-04-14T07:10:29.392Z,59.17
2019-04-14T07:12:58.744Z,59.77
2019-04-14T07:15:28.118Z,66.02
2019-04-14T07:17:57.477Z,62.75
2019-04-14T07:20:26.811Z,54.83
2019-04-14T07:22:56.194Z,63.52
2019-04-14T07:25:25.610Z,63.30
2019-04-14T07:27:56.217Z,57.97
2019-04-14T07:30:29.758Z,59.53
2019-04-14T07:33:00.816Z,62.40
2019-04-14T07:35:41.102Z,57.73
2019-04-14T07:38:12.070Z,61.40
2019-04-14T07:40:49.227Z,55.13
2019-04-14T07:43:26.082Z,63.30
2019-04-14T07:45:57.163Z,60.23
2019-04-14T07:48:28.184Z,63.13
2019-04-14T07:51:03.246Z,66.02
2019-04-14T07:53:34.400Z,66.15
2019-04-14T07:56:08.272Z,55.10
2019-04-14T07:58:39.298Z,58.63
2019-04-14T08:01:10.363Z,59.15
2019-04-14T08:03:44.565Z,55.60
2019-04-14T08:06:13.911Z,66.70
2019-04-14T08:08:43.255Z,70.42
2019-04-14T08:11:12.728Z,64.20
2019-04-14T08:13:43.190Z,67.40
2019-04-14T08:16:12.522Z,62.87
2019-04-14T08:18:42.050Z,61.07
2019-04-14T08:21:11.563Z,58.87
2019-04-14T08:23:40.971Z,59.40
2019-04-14T08:26:10.288Z,57.50
2019-04-14T08:28:39.779Z,68.00
2019-04-14T08:31:09.242Z,61.23
2019-04-14T08:33:38.588Z,66.80
2019-04-14T08:36:07.982Z,69.30
2019-04-14T08:38:37.400Z,59.00
2019-04-14T08:41:07.796Z,67.07
2019-04-14T08:43:52.280Z,64.17
2019-04-14T08:46:38.564Z,86.13
2019-04-14T08:49:12.102Z,71.43
2019-04-14T08:51:49.252Z,66.27
2019-04-14T08:54:25.849Z,82.93
2019-04-14T08:56:59.914Z,70.07
2019-04-14T08:59:33.878Z,74.67
2019-04-14T09:02:10.847Z,69.77
2019-04-14T09:04:41.812Z,66.70
2019-04-14T09:07:15.947Z,68.93
2019-04-14T09:09:46.983Z,57.83
2019-04-14T09:12:18.044Z,59.23
2019-04-14T09:14:56.864Z,60.33
2019-04-14T09:17:18.483Z,60.47
2019-04-14T09:19:47.872Z,52.40
2019-04-14T09:22:17.182Z,62.13
2019-04-14T09:24:46.522Z,67.90
2019-04-14T09:27:15.831Z,40.20
2019-04-14T09:29:45.158Z,57.67
2019-04-14T09:32:14.935Z,59.70
2019-04-14T09:34:44.255Z,63.03
2019-04-14T09:37:14.766Z,58.23
2019-04-14T09:39:44.204Z,51.67
2019-04-14T09:42:13.574Z,70.20
2019-04-14T09:44:42.983Z,57.33
2019-04-14T09:47:12.311Z,66.70
2019-04-14T09:49:41.701Z,63.93
2019-04-14T09:52:11.022Z,61.83
2019-04-14T09:54:40.426Z,53.43
2019-04-14T09:57:09.759Z,64.23
2019-04-14T09:59:39.172Z,47.13
2019-04-14T10:02:08.489Z,53.13
2019-04-14T10:04:37.866Z,47.57
2019-04-14T10:07:07.224Z,49.17
2019-04-14T10:09:36.614Z,49.10
2019-04-14T10:12:06.027Z,55.40
2019-04-14T10:14:35.471Z,54.37
2019-04-14T10:17:04.841Z,44.63
2019-04-14T10:19:34.178Z,49.17
2019-04-14T10:22:03.612Z,54.40
2019-04-14T10:24:33.050Z,55.80
2019-04-14T10:27:02.441Z,49.40
2019-04-14T10:29:31.829Z,49.40
2019-04-14T10:32:01.184Z,53.63
2019-04-14T10:34:30.484Z,54.03
2019-04-14T10:36:59.800Z,50.77
2019-04-14T10:39:29.136Z,47.00
2019-04-14T10:41:58.499Z,52.07
2019-04-14T10:44:27.884Z,61.10
2019-04-14T10:46:57.215Z,57.60
2019-04-14T10:49:26.609Z,58.27
2019-04-14T10:51:55.921Z,58.13
2019-04-14T10:54:25.345Z,49.87
2019-04-14T10:56:56.289Z,44.90
2019-04-14T10:59:25.739Z,48.37
2019-04-14T11:01:56.279Z,45.53
2019-04-14T11:04:25.621Z,48.50
2019-04-14T11:06:56.582Z,52.60
2019-04-14T11:09:25.986Z,49.53
2019-04-14T11:11:55.451Z,48.40
2019-04-14T11:14:24.846Z,48.13
2019-04-14T11:16:54.162Z,53.67
2019-04-14T11:19:23.582Z,53.00
2019-04-14T11:21:53.289Z,45.73
2019-04-14T11:24:24.115Z,44.40
2019-04-14T11:26:53.782Z,53.83
2019-04-14T11:29:23.313Z,52.13
2019-04-14T11:31:54.438Z,49.00
2019-04-14T11:34:31.044Z,48.07
2019-04-14T11:37:14.274Z,45.00
2019-04-14T11:39:45.351Z,47.50
2019-04-14T11:42:14.720Z,44.10
2019-04-14T11:44:44.187Z,41.27
2019-04-14T11:47:16.147Z,46.17
2019-04-14T11:49:44.740Z,45.73
2019-04-14T11:52:14.141Z,40.00
2019-04-14T11:54:45.602Z,51.53
2019-04-14T11:57:14.935Z,47.90
2019-04-14T11:59:51.816Z,45.53
2019-04-14T12:02:34.701Z,49.00
2019-04-14T12:05:06.683Z,48.30
2019-04-14T12:07:40.365Z,52.37
2019-04-14T12:10:11.603Z,53.43
2019-04-14T12:12:41.007Z,46.57
2019-04-14T12:15:16.072Z,49.07
2019-04-14T12:17:43.054Z,54.60
2019-04-14T12:20:12.669Z,48.20
2019-04-14T12:22:42.227Z,53.80
2019-04-14T12:25:11.620Z,47.03
2019-04-14T12:27:42.030Z,50.50
2019-04-14T12:30:13.596Z,52.93
2019-04-14T12:32:43.102Z,52.73
2019-04-14T12:35:12.459Z,45.17
2019-04-14T12:37:42.034Z,51.73
2019-04-14T12:40:11.417Z,51.30
2019-04-14T12:42:51.414Z,56.87
2019-04-14T12:45:28.554Z,50.27
2019-04-14T12:48:17.898Z,57.07
2019-04-14T12:50:49.155Z,49.40
2019-04-14T12:53:18.645Z,53.40
2019-04-14T12:55:48.044Z,49.13
2019-04-14T12:58:19.083Z,55.73
2019-04-14T13:00:50.050Z,49.03
2019-04-14T13:03:20.126Z,51.80
2019-04-14T13:05:49.436Z,48.90
2019-04-14T13:08:18.761Z,50.93
2019-04-14T13:10:48.409Z,47.43
2019-04-14T13:13:20.029Z,47.03
2019-04-14T13:15:49.393Z,51.93
2019-04-14T13:18:18.758Z,45.77
2019-04-14T13:20:48.099Z,43.53
2019-04-14T13:23:17.508Z,51.57
2019-04-14T13:25:46.901Z,48.70
2019-04-14T13:28:16.373Z,51.43
2019-04-14T13:30:47.183Z,49.90
2019-04-14T13:33:16.508Z,48.43
2019-04-14T13:35:45.879Z,55.50
2019-04-14T13:38:15.207Z,46.83
2019-04-14T13:40:44.763Z,49.23
2019-04-14T13:43:14.165Z,50.63
2019-04-14T13:45:43.578Z,50.13
2019-04-14T13:48:12.987Z,49.73
2019-04-14T13:50:42.391Z,52.07
2019-04-14T13:53:11.760Z,51.33
2019-04-14T13:55:41.159Z,50.23
2019-04-14T13:58:10.617Z,49.53
2019-04-14T14:00:40.019Z,50.80
2019-04-14T14:03:10.135Z,49.93
2019-04-14T14:05:39.535Z,57.20
2019-04-14T14:08:08.923Z,55.43
2019-04-14T14:10:38.259Z,54.83
2019-04-14T14:13:18.406Z,56.53
2019-04-14T14:15:49.472Z,49.57
2019-04-14T14:18:29.418Z,52.63
2019-04-14T14:21:09.430Z,47.13
2019-04-14T14:23:40.458Z,54.10
2019-04-14T14:26:11.505Z,53.33
2019-04-14T14:28:40.840Z,51.97
2019-04-14T14:31:10.164Z,47.70
2019-04-14T14:33:39.458Z,49.43
2019-04-14T14:36:08.819Z,53.90
2019-04-14T14:38:38.235Z,52.03
2019-04-14T14:41:09.937Z,53.90
2019-04-14T14:43:39.364Z,53.03
2019-04-14T14:46:22.344Z,51.87
2019-04-14T14:49:02.309Z,55.50
2019-04-14T14:51:33.257Z,53.70
2019-04-14T14:54:02.597Z,50.60
2019-04-14T14:56:32.048Z,56.53
2019-04-14T14:59:01.371Z,51.77
2019-04-14T15:01:31.436Z,50.90
2019-04-14T15:04:00.777Z,49.83
2019-04-14T15:06:30.244Z,50.50
2019-04-14T15:08:59.562Z,53.77
2019-04-14T15:11:28.923Z,56.20
2019-04-14T15:13:59.425Z,50.13
2019-04-14T15:16:28.915Z,53.67
2019-04-14T15:18:58.302Z,53.90
2019-04-14T15:21:27.611Z,50.70
2019-04-14T15:23:57.057Z,55.93
2019-04-14T15:26:26.453Z,60.57
2019-04-14T15:28:55.785Z,56.00
2019-04-14T15:31:25.115Z,60.67
2019-04-14T15:33:54.610Z,57.03
2019-04-14T15:36:23.986Z,59.87
2019-04-14T15:38:53.385Z,63.90
2019-04-14T15:41:22.758Z,59.27
2019-04-14T15:43:52.113Z,55.53
2019-04-14T15:46:22.496Z,65.87
2019-04-14T15:48:51.858Z,56.03
2019-04-14T15:51:21.249Z,58.40
2019-04-14T15:53:50.570Z,59.40
2019-04-14T15:56:22.438Z,62.23
2019-04-14T15:58:53.406Z,72.83
2019-04-14T16:01:36.645Z,64.93
2019-04-14T16:04:24.008Z,70.37
2019-04-14T16:06:54.984Z,60.97
2019-04-14T16:09:28.929Z,65.77
2019-04-14T16:12:03.024Z,65.07
2019-04-14T16:14:36.819Z,63.70
2019-04-14T16:17:10.639Z,66.13
2019-04-14T16:19:44.656Z,68.37
2019-04-14T16:22:14.089Z,65.87
2019-04-14T16:24:43.568Z,65.40
2019-04-14T16:27:26.635Z,69.43
2019-04-14T16:30:14.196Z,64.20
2019-04-14T16:32:48.495Z,68.77
2019-04-14T16:35:22.427Z,61.47
2019-04-14T16:37:51.827Z,68.40
2019-04-14T16:40:21.226Z,67.57
2019-04-14T16:42:51.945Z,54.70
2019-04-14T16:45:21.696Z,46.10
2019-04-14T16:47:51.076Z,47.97
2019-04-14T16:50:20.470Z,47.07
2019-04-14T16:53:07.806Z,40.17
2019-04-14T16:55:44.873Z,45.03
2019-04-14T16:58:15.931Z,43.83
2019-04-14T17:00:46.900Z,42.83
2019-04-14T17:04:53.875Z,40.13
2019-04-14T17:07:23.247Z,41.87
2019-04-14T17:09:52.579Z,39.47
2019-04-14T17:12:23.033Z,43.50
2019-04-14T17:14:56.778Z,48.53
2019-04-14T17:17:33.866Z,45.87
2019-04-14T17:20:12.226Z,45.47
2019-04-14T17:22:52.354Z,42.93
2019-04-14T17:25:23.376Z,41.30
2019-04-14T17:27:54.368Z,40.43
2019-04-14T17:30:25.494Z,39.50
2019-04-14T17:33:11.742Z,42.97
2019-04-14T17:35:48.602Z,40.03
2019-04-14T17:38:19.652Z,38.23
2019-04-14T17:40:50.876Z,37.87
2019-04-14T17:43:24.842Z,38.30
2019-04-14T17:46:07.427Z,47.23
2019-04-14T17:48:53.582Z,46.15
2019-04-14T17:51:36.687Z,41.15
2019-04-14T17:54:13.632Z,38.75
2019-04-14T17:56:47.314Z,36.93
2019-04-14T17:59:27.435Z,41.88
2019-04-14T18:02:13.124Z,35.30
2019-04-14T18:04:53.357Z,38.17
2019-04-14T18:07:27.319Z,40.13
2019-04-14T18:10:01.270Z,36.77
2019-04-14T18:12:33.396Z,36.53
2019-04-14T18:15:20.862Z,39.37
2019-04-14T18:18:08.571Z,41.05
2019-04-14T18:20:39.654Z,37.20
2019-04-14T18:23:08.988Z,39.53
2019-04-14T18:25:38.449Z,29.43
2019-04-14T18:28:18.214Z,34.33
2019-04-14T18:30:55.276Z,34.60
2019-04-14T18:33:35.448Z,35.00
2019-04-14T18:36:06.675Z,35.23
2019-04-14T18:38:40.722Z,36.53
2019-04-14T18:41:23.899Z,37.33
2019-04-14T18:44:11.454Z,33.87
2019-04-14T18:47:00.729Z,38.00
2019-04-14T18:49:40.611Z,35.03
2019-04-14T18:52:11.641Z,32.87
2019-04-14T18:54:54.336Z,34.00
2019-04-14T18:57:18.595Z,32.90
2019-04-14T18:59:52.469Z,29.67
2019-04-14T19:02:23.479Z,33.43
2019-04-14T19:04:53.521Z,35.73
2019-04-14T19:07:23.078Z,36.73
2019-04-14T19:09:52.530Z,35.37
2019-04-14T19:12:29.172Z,32.97
2019-04-14T19:15:04.589Z,34.47
2019-04-14T19:17:35.603Z,32.87
2019-04-14T19:20:06.349Z,39.50
2019-04-14T19:22:35.815Z,34.67
2019-04-14T19:25:08.270Z,32.33
2019-04-14T19:27:38.827Z,33.13
2019-04-14T19:30:08.449Z,35.17
2019-04-14T19:32:38.052Z,31.73
2019-04-14T19:35:07.628Z,37.50
2019-04-14T19:37:38.410Z,34.23
2019-04-14T19:40:08.019Z,34.17
2019-04-14T19:42:37.439Z,32.40
2019-04-14T19:45:06.902Z,29.60
2019-04-14T19:47:36.375Z,35.50
2019-04-14T19:50:07.728Z,34.97
2019-04-14T19:52:37.245Z,34.07
2019-04-14T19:55:06.617Z,31.43
2019-04-14T19:57:36.045Z,37.83
2019-04-14T20:00:05.912Z,39.77
2019-04-14T20:02:36.590Z,34.93
2019-04-14T20:05:06.463Z,32.10
2019-04-14T20:07:35.888Z,34.37
2019-04-14T20:10:06.708Z,29.73
2019-04-14T20:12:36.014Z,29.90
2019-04-14T20:15:05.743Z,39.73
2019-04-14T20:17:45.679Z,34.50
2019-04-14T20:20:26.835Z,36.37
2019-04-14T20:22:57.865Z,35.20
2019-04-14T20:25:43.946Z,32.37
2019-04-14T20:28:15.042Z,32.47
2019-04-14T20:30:54.858Z,32.87
2019-04-14T20:33:24.249Z,29.50
2019-04-14T20:35:53.622Z,28.37
2019-04-14T20:38:22.980Z,29.33
2019-04-14T20:40:52.542Z,28.63
2019-04-14T20:43:21.913Z,31.33
2019-04-14T20:45:51.264Z,30.93
2019-04-14T20:48:20.667Z,26.93
2019-04-14T20:50:50.074Z,25.77
2019-04-14T20:53:19.465Z,25.17
2019-04-14T20:55:49.042Z,27.33
2019-04-14T20:58:18.487Z,25.87
2019-04-14T21:00:47.992Z,25.30
2019-04-14T21:03:22.900Z,26.83
2019-04-14T21:06:10.144Z,23.53
2019-04-14T21:08:57.808Z,24.10
2019-04-14T21:11:28.860Z,25.40
2019-04-14T21:14:13.253Z,25.97
2019-04-14T21:16:53.547Z,26.67
2019-04-14T21:19:24.586Z,26.03
2019-04-14T21:21:55.576Z,23.73
2019-04-14T21:24:32.275Z,21.80
2019-04-14T21:27:06.044Z,26.20
2019-04-14T21:29:46.074Z,22.60
2019-04-14T21:32:26.053Z,26.23
2019-04-14T21:34:57.141Z,22.47
2019-04-14T21:37:28.196Z,19.50
2019-04-14T21:39:59.194Z,23.63
2019-04-14T21:42:28.597Z,22.80
2019-04-14T21:44:57.998Z,23.30
2019-04-14T21:47:28.635Z,26.63
2019-04-14T21:49:57.958Z,22.17
2019-04-14T21:52:38.271Z,20.80
2019-04-14T21:55:07.594Z,19.53
2019-04-14T21:57:41.799Z,25.43
2019-04-14T22:00:15.581Z,22.10
2019-04-14T22:03:00.300Z,27.77
2019-04-14T22:05:44.402Z,28.23
2019-04-14T22:08:18.178Z,23.27
2019-04-14T22:10:55.115Z,25.00
2019-04-14T22:13:27.014Z,24.70
2019-04-14T22:15:56.392Z,25.63
2019-04-14T22:18:25.790Z,23.60
2019-04-14T22:20:55.165Z,26.33
2019-04-14T22:23:24.655Z,22.20
2019-04-14T22:25:53.970Z,22.87
2019-04-14T22:28:23.428Z,25.57
2019-04-14T22:30:52.768Z,24.47
2019-04-14T22:33:22.062Z,22.57
2019-04-14T22:35:51.452Z,22.13
2019-04-14T22:38:20.847Z,24.60
2019-04-14T22:40:50.351Z,26.40
2019-04-14T22:43:19.733Z,25.80
2019-04-14T22:45:49.054Z,25.17
2019-04-14T22:48:18.472Z,27.50
2019-04-14T22:50:47.845Z,23.53
2019-04-14T22:53:17.251Z,24.90
2019-04-14T22:55:46.659Z,25.63
2019-04-14T22:58:15.997Z,25.60
2019-04-14T23:00:49.619Z,24.13
2019-04-14T23:03:22.335Z,23.37
2019-04-14T23:05:56.227Z,24.97
2019-04-14T23:08:29.883Z,26.23
2019-04-14T23:11:00.863Z,23.07
2019-04-14T23:13:49.901Z,23.27
2019-04-14T23:16:37.099Z,30.27
2019-04-14T23:19:08.089Z,25.00
2019-04-14T23:21:39.071Z,22.70
2019-04-14T23:24:18.878Z,24.03
2019-04-14T23:26:52.967Z,25.97
2019-04-14T23:29:19.270Z,20.83
2019-04-14T23:31:48.671Z,22.37
2019-04-14T23:34:18.055Z,24.10
2019-04-14T23:36:47.479Z,20.13
2019-04-14T23:39:16.857Z,23.23
2019-04-14T23:41:46.178Z,24.37
2019-04-14T23:44:15.566Z,22.20
2019-04-14T23:46:44.876Z,22.37
2019-04-14T23:49:14.325Z,22.87
2019-04-14T23:51:43.759Z,23.17
2019-04-14T23:54:13.151Z,23.30
2019-04-14T23:56:42.465Z,23.13
2019-04-14T23:59:11.798Z,23.90
